world map with DNZ marked

DNZ - Airport

This information may not be accurate or current and is not valid for navigation or flight planning. No warranty of fitness for any purpose is made or implied.

flag of Turkey

Donate via PayPal

Additional information is available on the NEW Great Circle Mapper

Location
City:  Denizli, Denizli, Turkey
Name:Cardak
ICAO / IATA:LTAY / DNZ

Details
Type:Airport (Aerodrome, Airfield)
Use:Public/Civil, Military
Latitude:37°47'08"N (37.785567)
Longitude:29°42'05"E (29.701297)
Datum:WGS 1984
Elevation:2795 ft (852 m)
Runways:1
Longest:9842 × 148 ft (3000 × 45 m)

Time
Timezone:UTC+3 (DST+5)
Local Time:

Weather
METAR:LTAY  041350Z 06006KT CAVOK 16/M03 Q1019
TAF:LTAY  (expired)

Related Locations
Nearby:
Farthest:RVV: 11460 mi / 18443 km
Raivavae, Tubuai Islands, Austral Islands, PF

Find:

   beyond  
but within

Other Information
Maps:
Sources:

  


 


Great Circle Mapper   Great Circle Mapper
Great Circle Mapper FAQ   Great Circle Mapper FAQ
  Karl's Home Page
KLSē   KLSē Home
   GC on Facebook
Airlines of the World   Airlines of the World
Donate via PayPal


Copyright © 2004-2019, Karl L. Swartz. All rights reserved.
All trademarks mentioned herein belong to their respective owners.

Please see credits for attribution and copyright information.

Karl Swartz <karl@kls2.com>
  Powered by FreeBSD
Valid HTML 4.01!
Labeled with ICRA
hCard Microformat
Geo Microformat